createdAt,value
2018-09-29T07:29:02.847Z,8.80
2018-09-29T07:34:17.058Z,9.10
2018-09-29T07:39:26.769Z,9.40
2018-09-29T07:44:37.965Z,10.10
2018-09-29T07:49:41.796Z,11.00
2018-09-29T07:54:42.707Z,11.70
2018-09-29T07:59:41.240Z,12.40
2018-09-29T08:04:42.971Z,13.00
2018-09-29T08:09:39.409Z,13.50
2018-09-29T08:14:32.311Z,14.00
2018-09-29T08:19:29.296Z,14.60
2018-09-29T08:24:24.184Z,15.10
2018-09-29T08:29:16.330Z,15.50
2018-09-29T08:34:11.712Z,16.00
2018-09-29T08:39:08.222Z,16.10
2018-09-29T08:43:59.441Z,16.30
2018-09-29T08:48:54.326Z,16.50
2018-09-29T08:53:49.203Z,16.60
2018-09-29T08:58:40.740Z,16.40
2018-09-29T09:03:32.575Z,16.70
2018-09-29T09:08:24.289Z,16.80
2018-09-29T09:13:16.140Z,16.80
2018-09-29T09:18:08.113Z,16.70
2018-09-29T09:23:00.639Z,17.20
2018-09-29T09:27:52.502Z,17.50
2018-09-29T09:32:44.448Z,17.70
2018-09-29T09:37:38.445Z,17.90
2018-09-29T09:42:30.016Z,18.00
2018-09-29T09:47:22.189Z,18.30
2018-09-29T09:52:16.025Z,17.90
2018-09-29T09:57:09.600Z,18.00
2018-09-29T10:02:00.699Z,18.00
2018-09-29T10:06:53.892Z,18.00
2018-09-29T10:11:53.128Z,17.90
2018-09-29T10:16:44.350Z,17.70
2018-09-29T10:21:35.286Z,17.00
2018-09-29T10:26:26.901Z,17.00
2018-09-29T10:31:18.335Z,16.70
2018-09-29T10:36:10.508Z,16.60
2018-09-29T10:41:02.558Z,16.60
2018-09-29T10:45:54.219Z,16.60
2018-09-29T10:50:48.121Z,16.40
2018-09-29T10:55:39.143Z,16.10
2018-09-29T11:00:33.361Z,15.90
2018-09-29T11:05:27.600Z,15.70
2018-09-29T11:10:23.421Z,15.60
2018-09-29T11:15:16.050Z,15.60
2018-09-29T11:20:10.339Z,15.60
2018-09-29T11:25:04.791Z,15.70
2018-09-29T11:29:56.308Z,16.20
2018-09-29T11:34:49.022Z,16.90
2018-09-29T11:39:42.094Z,17.40
2018-09-29T11:44:56.707Z,18.20
2018-09-29T11:49:47.495Z,18.70
2018-09-29T11:54:40.969Z,18.80
2018-09-29T12:00:01.348Z,19.20
2018-09-29T12:04:52.481Z,19.60
2018-09-29T12:10:08.528Z,19.70
2018-09-29T12:14:59.287Z,20.00
2018-09-29T12:19:52.223Z,20.80
2018-09-29T12:24:43.635Z,21.10
2018-09-29T12:29:38.400Z,21.20
2018-09-29T12:34:39.870Z,21.40
2018-09-29T12:39:32.725Z,21.80
2018-09-29T12:44:24.199Z,22.00
2018-09-29T12:49:16.459Z,22.10
2018-09-29T12:54:09.924Z,22.20
2018-09-29T12:59:09.376Z,22.00
2018-09-29T13:04:01.910Z,21.80
2018-09-29T13:08:55.334Z,21.50
2018-09-29T13:13:48.372Z,21.30
2018-09-29T13:18:41.486Z,21.20
2018-09-29T13:23:32.740Z,21.20
2018-09-29T13:28:34.090Z,21.20
2018-09-29T13:33:28.487Z,21.40
2018-09-29T13:38:22.352Z,21.00
2018-09-29T13:43:13.784Z,20.70
2018-09-29T13:48:06.199Z,20.40
2018-09-29T13:53:12.696Z,20.60
2018-09-29T13:58:05.852Z,20.80
2018-09-29T14:02:58.236Z,20.90
2018-09-29T14:07:54.581Z,20.70
2018-09-29T14:12:56.651Z,20.80
2018-09-29T14:17:52.045Z,20.70
2018-09-29T14:22:42.417Z,20.70
2018-09-29T14:27:34.724Z,20.80
2018-09-29T14:32:27.841Z,20.80
2018-09-29T14:37:18.954Z,19.80
2018-09-29T14:42:14.446Z,19.00
2018-09-29T14:47:07.875Z,18.70
2018-09-29T14:52:00.868Z,18.40
2018-09-29T14:56:50.149Z,18.10
2018-09-29T15:01:49.383Z,17.90
2018-09-29T15:06:39.783Z,17.70
2018-09-29T15:11:30.095Z,17.40
2018-09-29T15:16:21.064Z,17.20
2018-09-29T15:21:11.663Z,17.20
2018-09-29T15:26:03.075Z,17.10
2018-09-29T15:30:57.853Z,17.00
2018-09-29T15:35:50.391Z,16.90
2018-09-29T15:40:45.079Z,16.80
2018-09-29T15:45:37.395Z,16.70
2018-09-29T15:50:32.298Z,16.60
2018-09-29T15:55:33.160Z,16.50
2018-09-29T16:00:38.544Z,16.40
2018-09-29T16:05:32.234Z,16.30
2018-09-29T16:10:25.844Z,16.10
2018-09-29T16:15:20.860Z,16.10
2018-09-29T16:20:17.772Z,15.90
2018-09-29T16:25:11.025Z,15.90
2018-09-29T16:30:05.027Z,15.80
2018-09-29T16:34:58.631Z,15.60
2018-09-29T16:39:52.763Z,15.50
2018-09-29T16:44:54.650Z,15.30
2018-09-29T16:49:48.833Z,15.20
2018-09-29T16:54:44.557Z,15.00
2018-09-29T16:59:38.604Z,14.90
2018-09-29T17:04:33.263Z,14.80
2018-09-29T17:09:27.707Z,14.60
2018-09-29T17:14:23.921Z,14.60
2018-09-29T17:19:25.844Z,14.30
2018-09-29T17:24:20.173Z,14.10
2018-09-29T17:29:17.421Z,13.90
2018-09-29T17:34:10.755Z,13.70
2018-09-29T17:39:07.679Z,13.50
2018-09-29T17:44:00.834Z,13.10
2018-09-29T17:48:56.935Z,13.00
2018-09-29T17:53:53.537Z,12.80
2018-09-29T17:58:54.521Z,12.70
2018-09-29T18:03:53.254Z,12.50
2018-09-29T18:08:52.517Z,12.40
2018-09-29T18:13:50.044Z,12.30
2018-09-29T18:18:48.175Z,12.10
2018-09-29T18:23:46.300Z,12.00
2018-09-29T18:28:47.170Z,11.90
2018-09-29T18:33:43.300Z,11.80
2018-09-29T18:38:47.331Z,11.60
2018-09-29T18:43:45.449Z,11.30
2018-09-29T18:48:51.772Z,11.20
2018-09-29T18:53:53.231Z,11.10
2018-09-29T18:58:57.188Z,10.90
2018-09-29T19:03:59.434Z,10.80
2018-09-29T19:09:06.327Z,10.80
2018-09-29T19:14:13.205Z,10.80
2018-09-29T19:19:21.853Z,10.70
2018-09-29T19:24:10.221Z,10.50
2018-09-29T19:29:27.416Z,10.60
2018-09-29T19:34:33.447Z,10.40
2018-09-29T19:39:40.898Z,10.20
2018-09-29T19:44:49.088Z,10.20
2018-09-29T19:49:57.618Z,10.10
2018-09-29T19:55:08.259Z,9.90
2018-09-29T20:00:23.142Z,9.80
2018-09-29T20:05:35.667Z,9.70
2018-09-29T20:10:47.959Z,9.60
2018-09-29T20:16:04.886Z,9.50
2018-09-29T20:21:16.937Z,9.40
2018-09-29T20:26:32.996Z,9.30
2018-09-29T20:31:44.822Z,9.30
2018-09-29T20:37:04.159Z,9.20
2018-09-29T20:42:21.414Z,9.10
2018-09-29T20:47:39.660Z,9.00
2018-09-29T20:52:53.656Z,8.90
2018-09-29T20:58:14.682Z,8.90
2018-09-29T21:03:30.323Z,8.80
2018-09-29T21:08:44.727Z,8.70
2018-09-29T21:14:07.667Z,8.60
2018-09-29T21:19:29.751Z,8.50
2018-09-29T21:24:57.048Z,8.50
2018-09-29T21:30:18.962Z,8.40
2018-09-29T21:35:45.196Z,8.30
2018-09-29T21:41:16.061Z,8.30
2018-09-29T21:46:43.709Z,8.30
2018-09-29T21:52:17.425Z,8.10
2018-09-29T21:57:43.829Z,8.10
2018-09-29T22:08:26.011Z,8.00
2018-09-29T22:24:28.889Z,7.80
2018-09-29T22:29:54.675Z,7.50
2018-09-29T22:35:20.870Z,7.60
2018-09-29T22:56:43.812Z,7.50
2018-09-29T23:07:29.550Z,7.30
